createdAt,value
2023-01-04T00:00:19.166Z,10.90
2023-01-04T00:01:20.827Z,12.02
2023-01-04T00:02:22.041Z,11.98
2023-01-04T00:03:23.783Z,13.50
2023-01-04T00:04:25.034Z,10.70
2023-01-04T00:05:25.920Z,12.75
2023-01-04T00:06:27.084Z,15.13
2023-01-04T00:07:28.360Z,11.15
2023-01-04T00:08:29.898Z,11.85
2023-01-04T00:09:30.799Z,10.75
2023-01-04T00:10:31.941Z,9.80
2023-01-04T00:11:32.841Z,13.68
2023-01-04T00:12:34.919Z,11.80
2023-01-04T00:13:35.920Z,13.82
2023-01-04T00:14:37.077Z,15.80
2023-01-04T00:15:38.001Z,11.80
2023-01-04T00:16:39.263Z,12.50
2023-01-04T00:17:40.235Z,11.57
2023-01-04T00:18:42.336Z,12.73
2023-01-04T00:19:43.476Z,10.20
2023-01-04T00:20:44.295Z,13.50
2023-01-04T00:21:45.437Z,12.35
2023-01-04T00:22:46.320Z,17.50
2023-01-04T00:23:48.774Z,16.47
2023-01-04T00:24:49.614Z,17.67
2023-01-04T00:25:50.728Z,20.20
2023-01-04T00:26:51.616Z,23.35
2023-01-04T00:27:52.808Z,17.47
2023-01-04T00:28:54.747Z,14.50
2023-01-04T00:31:00.962Z,11.52
2023-01-04T00:32:02.155Z,13.50
2023-01-04T00:33:02.986Z,11.25
2023-01-04T00:34:05.400Z,13.73
2023-01-04T00:35:06.380Z,11.00
2023-01-04T00:36:08.388Z,11.33
2023-01-04T00:38:10.220Z,11.65
2023-01-04T00:39:14.610Z,9.80
2023-01-04T00:40:15.519Z,13.05
2023-01-04T00:41:48.747Z,9.97
2023-01-04T00:42:38.033Z,12.18
2023-01-04T00:43:39.155Z,10.05
2023-01-04T00:44:40.328Z,8.70
2023-01-04T00:45:42.726Z,10.73
2023-01-04T00:46:44.271Z,9.27
2023-01-04T00:47:45.166Z,10.60
2023-01-04T00:48:48.880Z,8.73
2023-01-04T00:49:50.989Z,8.57
2023-01-04T00:50:51.904Z,8.73
2023-01-04T00:51:53.139Z,11.68
2023-01-04T00:52:53.971Z,13.23
2023-01-04T00:53:55.124Z,11.83
2023-01-04T00:54:56.039Z,8.73
2023-01-04T00:55:59.091Z,8.35
2023-01-04T00:57:00.504Z,7.05
2023-01-04T00:58:01.651Z,8.73
2023-01-04T00:59:03.209Z,8.52
2023-01-04T01:00:04.890Z,7.85
2023-01-04T01:01:06.068Z,9.32
2023-01-04T01:02:07.516Z,9.40
2023-01-04T01:03:08.649Z,6.57
2023-01-04T01:04:11.402Z,9.65
2023-01-04T01:05:12.968Z,7.70
2023-01-04T01:06:14.170Z,11.27
2023-01-04T01:07:15.319Z,7.80
2023-01-04T01:08:24.887Z,9.02
2023-01-04T01:09:26.166Z,7.65
2023-01-04T01:10:27.070Z,8.15
2023-01-04T01:11:28.924Z,12.43
2023-01-04T01:12:29.787Z,8.60
2023-01-04T01:13:31.272Z,7.90
2023-01-04T01:14:32.164Z,8.40
2023-01-04T01:15:34.438Z,9.77
2023-01-04T01:16:54.510Z,8.55
2023-01-04T01:17:56.561Z,7.80
2023-01-04T01:18:57.751Z,7.17
2023-01-04T01:19:58.721Z,8.05
2023-01-04T01:21:03.647Z,7.40
2023-01-04T01:22:04.817Z,6.45
2023-01-04T01:23:05.663Z,8.00
2023-01-04T01:24:07.375Z,6.33
2023-01-04T01:25:08.357Z,7.97
2023-01-04T01:26:12.651Z,7.00
2023-01-04T01:27:13.537Z,7.45
2023-01-04T01:28:14.769Z,5.13
2023-01-04T01:29:15.640Z,7.97
2023-01-04T01:30:16.871Z,8.35
2023-01-04T01:31:18.967Z,6.88
2023-01-04T01:32:20.154Z,8.30
2023-01-04T01:33:21.043Z,7.50
2023-01-04T01:34:22.228Z,7.63
2023-01-04T01:35:23.061Z,8.25
2023-01-04T01:36:25.787Z,6.85
2023-01-04T01:37:26.661Z,8.05
2023-01-04T01:38:27.814Z,9.97
2023-01-04T01:39:29.112Z,9.80
2023-01-04T01:40:30.129Z,8.60
2023-01-04T01:41:32.894Z,7.30
2023-01-04T01:42:33.800Z,7.85
2023-01-04T01:43:52.821Z,9.43
2023-01-04T01:44:58.676Z,6.28
2023-01-04T01:46:00.136Z,5.72
2023-01-04T01:47:01.364Z,6.25
2023-01-04T01:48:04.904Z,6.72
2023-01-04T01:49:09.681Z,7.45
2023-01-04T01:50:18.803Z,10.05
2023-01-04T01:51:20.410Z,5.10
2023-01-04T01:52:24.429Z,6.10
2023-01-04T01:53:25.996Z,6.45
2023-01-04T01:54:30.467Z,5.60
2023-01-04T01:55:32.889Z,5.53
2023-01-04T01:56:35.690Z,5.95
2023-01-04T01:57:37.202Z,5.10
2023-01-04T01:58:39.973Z,5.35
2023-01-04T01:59:41.868Z,5.80
2023-01-04T02:00:43.012Z,6.13
2023-01-04T02:01:44.385Z,5.63
2023-01-04T02:02:50.048Z,5.18
2023-01-04T02:03:51.436Z,6.03
2023-01-04T02:04:52.464Z,5.00
2023-01-04T02:05:54.067Z,7.20
2023-01-04T02:06:56.646Z,6.97
2023-01-04T02:07:58.654Z,7.97
2023-01-04T02:10:00.570Z,6.35
2023-01-04T02:11:01.484Z,8.38
2023-01-04T02:12:02.730Z,11.02
2023-01-04T02:13:05.884Z,6.80
2023-01-04T02:14:25.617Z,5.03
2023-01-04T02:15:28.882Z,8.32
2023-01-04T02:16:35.912Z,6.50
2023-01-04T02:17:42.000Z,8.40
2023-01-04T02:18:45.100Z,7.93
2023-01-04T02:19:56.390Z,10.50
2023-01-04T02:21:01.361Z,6.95
2023-01-04T02:22:21.266Z,7.25
2023-01-04T02:23:40.380Z,7.75
2023-01-04T02:24:49.920Z,7.47
2023-01-04T02:26:00.028Z,8.35
2023-01-04T02:27:28.224Z,8.18
2023-01-04T02:28:35.976Z,7.63
2023-01-04T02:29:53.488Z,6.63
2023-01-04T02:31:12.815Z,5.53
2023-01-04T02:32:17.825Z,6.50
2023-01-04T02:33:30.479Z,8.20
2023-01-04T02:34:38.302Z,6.63
2023-01-04T02:35:41.564Z,11.35
2023-01-04T02:36:47.425Z,6.93
2023-01-04T02:37:50.584Z,7.93
2023-01-04T02:39:01.491Z,6.45
2023-01-04T02:40:07.616Z,5.63
2023-01-04T02:41:14.364Z,9.15
2023-01-04T02:42:19.381Z,7.03
2023-01-04T02:43:43.571Z,5.70
2023-01-04T02:44:53.568Z,5.85
2023-01-04T02:45:57.377Z,4.82
2023-01-04T02:47:01.680Z,6.63
2023-01-04T02:48:22.026Z,5.38
2023-01-04T02:49:41.267Z,4.72
2023-01-04T02:50:50.023Z,6.28
2023-01-04T02:51:51.156Z,6.15
2023-01-04T02:52:52.048Z,7.10
2023-01-04T02:53:53.455Z,7.75
2023-01-04T02:54:56.324Z,6.47
2023-01-04T02:56:03.695Z,6.43
2023-01-04T02:57:10.951Z,6.90
2023-01-04T02:58:17.958Z,6.15
2023-01-04T02:59:33.166Z,6.45
2023-01-04T03:00:59.309Z,5.57
2023-01-04T03:02:26.185Z,6.72
2023-01-04T03:03:49.047Z,9.55
2023-01-04T03:05:12.281Z,5.38
2023-01-04T03:06:16.460Z,6.38
2023-01-04T03:07:23.685Z,13.10
2023-01-04T03:08:28.279Z,8.55
2023-01-04T03:09:31.770Z,5.90
2023-01-04T03:10:35.403Z,7.28
2023-01-04T03:11:58.563Z,7.93
2023-01-04T03:13:03.566Z,7.07
2023-01-04T03:14:31.536Z,7.70
2023-01-04T03:15:30.795Z,6.53
2023-01-04T03:16:33.305Z,9.13
2023-01-04T03:17:37.291Z,5.10
2023-01-04T03:18:40.893Z,8.48
2023-01-04T03:19:51.339Z,7.32
2023-01-04T03:20:53.948Z,6.65
2023-01-04T03:21:55.104Z,6.85
2023-01-04T03:23:16.107Z,8.10
2023-01-04T03:24:35.555Z,6.80
2023-01-04T03:25:57.696Z,6.57
2023-01-04T03:27:19.922Z,7.28
2023-01-04T03:28:41.399Z,7.07
2023-01-04T03:30:02.232Z,7.35
2023-01-04T03:31:24.631Z,6.18
2023-01-04T03:32:45.323Z,6.13
2023-01-04T03:34:05.611Z,5.10
2023-01-04T03:35:27.406Z,5.70
2023-01-04T03:36:36.671Z,6.50
2023-01-04T03:37:42.944Z,7.15
2023-01-04T03:39:03.817Z,6.57
2023-01-04T03:40:30.750Z,5.57
2023-01-04T03:41:52.753Z,6.57
2023-01-04T03:43:15.652Z,7.07
2023-01-04T03:44:39.653Z,7.22
2023-01-04T03:46:01.602Z,6.65
2023-01-04T03:47:23.519Z,7.00
2023-01-04T03:48:33.723Z,6.30
2023-01-04T03:49:39.753Z,9.43
2023-01-04T03:50:42.120Z,8.32
2023-01-04T03:51:43.749Z,7.97
2023-01-04T03:52:45.872Z,12.55
2023-01-04T03:53:50.872Z,6.35
2023-01-04T03:54:53.272Z,6.25
2023-01-04T03:55:55.324Z,8.20
2023-01-04T03:57:57.854Z,7.03
2023-01-04T03:58:59.597Z,7.88
2023-01-04T04:00:02.621Z,8.20
2023-01-04T04:01:03.945Z,9.15
2023-01-04T04:02:07.611Z,10.70
2023-01-04T04:03:08.596Z,7.00
2023-01-04T04:04:28.054Z,7.50
2023-01-04T04:05:48.118Z,5.57
2023-01-04T04:07:07.603Z,9.32
2023-01-04T04:08:30.032Z,9.30
2023-01-04T04:09:31.014Z,6.88
2023-01-04T04:10:32.147Z,8.65
2023-01-04T04:11:33.006Z,10.02
2023-01-04T04:12:34.187Z,11.65
2023-01-04T04:13:35.110Z,7.22
2023-01-04T04:14:36.234Z,9.23
2023-01-04T04:15:37.089Z,9.32
2023-01-04T04:16:38.434Z,9.77
2023-01-04T04:17:39.352Z,8.10
2023-01-04T04:18:40.516Z,8.00
2023-01-04T04:19:41.672Z,8.82
2023-01-04T04:20:43.155Z,8.25
2023-01-04T04:21:44.313Z,11.35
2023-01-04T04:22:45.164Z,8.10
2023-01-04T04:23:46.329Z,8.83
2023-01-04T04:24:47.170Z,7.95
2023-01-04T04:25:48.305Z,7.90
2023-01-04T04:27:08.057Z,9.05
2023-01-04T04:28:09.299Z,12.35
2023-01-04T04:29:10.259Z,8.13
2023-01-04T04:30:11.701Z,8.20
2023-01-04T04:31:12.770Z,7.90
2023-01-04T04:32:14.098Z,9.00
2023-01-04T04:33:15.015Z,10.82
2023-01-04T04:34:16.188Z,9.55
2023-01-04T04:35:17.103Z,11.02
2023-01-04T04:36:18.900Z,10.13
2023-01-04T04:37:19.762Z,9.88
2023-01-04T04:38:21.179Z,8.68
2023-01-04T04:39:22.066Z,10.60
2023-01-04T04:40:41.533Z,7.32
2023-01-04T04:41:42.730Z,8.38
2023-01-04T04:42:45.045Z,8.85
2023-01-04T04:43:45.900Z,9.90
2023-01-04T04:44:47.068Z,7.50
2023-01-04T04:45:47.990Z,9.07
2023-01-04T04:46:49.363Z,10.77
2023-01-04T04:47:50.228Z,9.48
2023-01-04T04:48:51.521Z,9.15
2023-01-04T04:49:52.403Z,8.27
2023-01-04T04:50:53.683Z,7.85
2023-01-04T04:51:55.244Z,10.85
2023-01-04T04:52:56.587Z,9.02
2023-01-04T04:53:57.476Z,9.60
2023-01-04T04:54:58.659Z,9.73
2023-01-04T04:55:59.500Z,9.13
2023-01-04T04:57:00.716Z,9.90
2023-01-04T04:58:01.601Z,7.50
2023-01-04T04:59:02.806Z,9.30
2023-01-04T05:00:04.230Z,7.68
2023-01-04T05:01:05.452Z,8.02
2023-01-04T05:02:06.495Z,10.15
2023-01-04T05:03:08.682Z,7.53
2023-01-04T05:05:14.772Z,9.05
2023-01-04T05:06:15.696Z,7.13
2023-01-04T05:07:17.539Z,7.78
2023-01-04T05:08:18.391Z,13.52
2023-01-04T05:09:19.524Z,7.83
2023-01-04T05:10:20.434Z,7.95
2023-01-04T05:11:41.570Z,8.30
2023-01-04T05:13:00.685Z,8.93
2023-01-04T05:14:01.523Z,8.52
2023-01-04T05:15:02.502Z,10.27
2023-01-04T05:16:04.541Z,7.47
2023-01-04T05:17:05.611Z,7.93
2023-01-04T05:18:07.570Z,10.70
2023-01-04T05:19:08.417Z,7.97
2023-01-04T05:20:09.855Z,9.40
2023-01-04T05:21:12.080Z,10.00
2023-01-04T05:22:14.770Z,10.05
2023-01-04T05:23:17.554Z,11.48
2023-01-04T05:24:18.687Z,9.40
2023-01-04T05:25:19.531Z,8.90
2023-01-04T05:26:20.690Z,8.77
2023-01-04T05:27:21.559Z,9.07
2023-01-04T05:28:22.792Z,7.82
2023-01-04T05:29:42.104Z,10.00
2023-01-04T05:30:52.687Z,8.00
2023-01-04T05:31:53.658Z,8.18
2023-01-04T05:32:54.840Z,7.97
2023-01-04T05:33:55.709Z,11.15
2023-01-04T05:34:56.907Z,8.43
2023-01-04T05:35:58.772Z,10.60
2023-01-04T05:36:59.967Z,8.45
2023-01-04T05:38:00.822Z,10.05
2023-01-04T05:39:02.633Z,8.30
2023-01-04T05:40:03.853Z,10.18
2023-01-04T05:41:25.863Z,8.55
2023-01-04T05:42:27.342Z,7.53
2023-01-04T05:43:28.467Z,8.90
2023-01-04T05:44:29.338Z,7.53
2023-01-04T05:45:30.611Z,8.13
2023-01-04T05:46:31.576Z,7.22
2023-01-04T05:47:33.199Z,7.35
2023-01-04T05:48:34.087Z,7.93
2023-01-04T05:49:35.260Z,7.80
2023-01-04T05:50:36.086Z,9.02
2023-01-04T05:51:38.431Z,5.90
2023-01-04T05:52:39.302Z,9.35
2023-01-04T05:53:40.528Z,7.90
2023-01-04T05:54:42.064Z,9.90
2023-01-04T05:55:43.261Z,5.63
2023-01-04T05:56:44.103Z,9.93
2023-01-04T05:57:45.435Z,7.90
2023-01-04T05:58:46.258Z,7.82
2023-01-04T05:59:47.407Z,7.57
2023-01-04T06:00:48.232Z,8.23
2023-01-04T06:01:49.644Z,7.80
2023-01-04T06:02:51.852Z,6.40
2023-01-04T06:03:53.097Z,7.25
2023-01-04T06:04:58.715Z,10.43
2023-01-04T06:06:00.444Z,7.50
2023-01-04T06:07:01.323Z,7.13
2023-01-04T06:08:02.550Z,8.67
2023-01-04T06:09:03.454Z,7.97
2023-01-04T06:10:06.152Z,8.57
2023-01-04T06:11:06.998Z,8.00
2023-01-04T06:12:08.575Z,7.33
2023-01-04T06:13:09.780Z,8.18
2023-01-04T06:14:10.779Z,7.97
2023-01-04T06:15:11.927Z,8.98
2023-01-04T06:16:12.779Z,8.48
2023-01-04T06:17:14.090Z,9.38
2023-01-04T06:18:15.047Z,10.40
2023-01-04T06:19:16.227Z,8.63
2023-01-04T06:20:17.408Z,10.23
2023-01-04T06:21:18.269Z,9.90
2023-01-04T06:22:19.693Z,10.77
2023-01-04T06:23:20.590Z,10.40
2023-01-04T06:24:21.719Z,9.93
2023-01-04T06:25:23.251Z,11.32
2023-01-04T06:26:24.389Z,11.25
2023-01-04T06:27:25.280Z,12.77
2023-01-04T06:28:26.499Z,9.30
2023-01-04T06:29:27.621Z,13.48
2023-01-04T06:30:28.990Z,10.88
2023-01-04T06:31:30.012Z,12.20
2023-01-04T06:32:31.276Z,14.60
2023-01-04T06:33:32.833Z,10.70
2023-01-04T06:34:34.039Z,9.88
2023-01-04T06:35:35.269Z,10.25
2023-01-04T06:36:36.433Z,12.07
2023-01-04T06:37:37.615Z,12.43
2023-01-04T06:38:38.475Z,9.75
2023-01-04T06:39:39.641Z,9.82
2023-01-04T06:40:41.161Z,9.43
2023-01-04T06:41:42.302Z,12.52
2023-01-04T06:42:45.853Z,8.75
2023-01-04T06:43:47.167Z,8.35
2023-01-04T06:44:48.129Z,11.40
2023-01-04T06:45:49.295Z,9.30
2023-01-04T06:46:50.159Z,9.98
2023-01-04T06:47:51.305Z,12.35
2023-01-04T06:48:53.324Z,8.10
2023-01-04T06:50:55.154Z,8.07
2023-01-04T06:51:56.304Z,11.43
2023-01-04T06:52:57.156Z,8.93
2023-01-04T06:53:58.357Z,8.10
2023-01-04T06:55:00.463Z,9.90
2023-01-04T06:56:02.301Z,9.65
2023-01-04T06:57:03.127Z,11.48
2023-01-04T06:58:04.418Z,7.28
2023-01-04T06:59:05.592Z,10.65
2023-01-04T07:00:08.285Z,9.77
2023-01-04T07:01:09.260Z,10.52
2023-01-04T07:02:13.211Z,9.13
2023-01-04T07:03:16.206Z,8.45
2023-01-04T07:04:17.683Z,9.55
2023-01-04T07:05:18.658Z,8.07
2023-01-04T07:06:19.836Z,11.47
2023-01-04T07:07:20.758Z,8.65
2023-01-04T07:08:21.932Z,10.20
2023-01-04T07:09:23.111Z,8.38
2023-01-04T07:10:23.998Z,15.25
2023-01-04T07:11:25.791Z,9.13
2023-01-04T07:12:26.792Z,8.65
2023-01-04T07:13:27.914Z,9.85
2023-01-04T07:14:29.182Z,11.05
2023-01-04T07:15:39.662Z,9.23
2023-01-04T07:16:41.722Z,9.00
2023-01-04T07:17:42.602Z,8.75
2023-01-04T07:18:43.722Z,10.43
2023-01-04T07:19:44.627Z,8.82
2023-01-04T07:20:45.775Z,8.82
2023-01-04T07:21:46.672Z,9.10
2023-01-04T07:22:47.801Z,7.13
2023-01-04T07:23:48.931Z,10.30
2023-01-04T07:24:49.969Z,9.10
2023-01-04T07:25:51.100Z,9.07
2023-01-04T07:26:52.634Z,11.48
2023-01-04T07:27:54.455Z,8.32
2023-01-04T07:29:13.661Z,7.28
2023-01-04T07:30:14.905Z,11.68
2023-01-04T07:31:16.148Z,8.85
2023-01-04T07:32:17.084Z,7.03
2023-01-04T07:33:18.226Z,9.47
2023-01-04T07:34:20.372Z,11.02
2023-01-04T07:35:21.905Z,9.18
2023-01-04T07:36:22.747Z,9.13
2023-01-04T07:37:23.965Z,8.82
2023-01-04T07:38:24.796Z,9.98
2023-01-04T07:39:25.963Z,10.55
2023-01-04T07:40:27.064Z,10.05
2023-01-04T07:41:28.709Z,7.68
2023-01-04T07:42:30.999Z,13.43
2023-01-04T07:43:31.834Z,9.98
2023-01-04T07:44:33.178Z,9.80
2023-01-04T07:45:35.421Z,12.73
2023-01-04T07:46:36.734Z,8.48
2023-01-04T07:47:37.679Z,13.57
2023-01-04T07:48:38.792Z,12.43
2023-01-04T07:49:39.968Z,12.55
2023-01-04T07:50:40.864Z,14.45
2023-01-04T07:51:42.071Z,14.47
2023-01-04T07:52:43.221Z,11.65
2023-01-04T07:53:44.359Z,10.00
2023-01-04T07:54:45.502Z,9.30
2023-01-04T07:55:46.412Z,9.77
2023-01-04T07:56:47.870Z,11.60
2023-01-04T07:57:52.126Z,9.82
2023-01-04T07:58:56.276Z,10.18
2023-01-04T07:59:57.436Z,9.75
2023-01-04T08:01:05.974Z,13.25
2023-01-04T08:02:09.520Z,10.63
2023-01-04T08:03:10.679Z,11.60
2023-01-04T08:04:12.629Z,11.95
2023-01-04T08:06:15.930Z,14.65
2023-01-04T08:07:17.079Z,8.38
2023-01-04T08:08:17.928Z,11.73
2023-01-04T08:09:19.261Z,13.75
2023-01-04T08:10:20.260Z,15.65
2023-01-04T08:11:22.625Z,12.80
2023-01-04T08:12:23.786Z,10.95
2023-01-04T08:13:25.311Z,11.48
2023-01-04T08:14:26.454Z,12.45
2023-01-04T08:15:27.438Z,11.20
2023-01-04T08:16:31.060Z,14.98
2023-01-04T08:17:31.946Z,15.25
2023-01-04T08:18:33.088Z,14.80
2023-01-04T08:19:34.210Z,13.45
2023-01-04T08:20:35.064Z,13.25
2023-01-04T08:21:36.377Z,16.48
2023-01-04T08:22:37.359Z,10.98
2023-01-04T08:23:38.490Z,12.32
2023-01-04T08:24:39.359Z,11.85
2023-01-04T08:25:40.537Z,13.68
2023-01-04T08:26:41.959Z,15.07
2023-01-04T08:27:43.175Z,12.88
2023-01-04T08:28:44.951Z,11.60
2023-01-04T08:29:46.114Z,14.32
2023-01-04T08:30:47.062Z,9.68
2023-01-04T08:31:48.279Z,14.40
2023-01-04T08:32:49.859Z,10.13
2023-01-04T08:33:51.474Z,10.77
2023-01-04T08:34:53.568Z,13.27
2023-01-04T08:35:54.755Z,11.20
2023-01-04T08:36:55.959Z,15.27
2023-01-04T08:38:13.082Z,13.15
2023-01-04T08:39:17.975Z,10.20
2023-01-04T08:40:19.180Z,12.05
2023-01-04T08:41:47.201Z,10.57
2023-01-04T08:42:41.497Z,12.63
2023-01-04T08:43:42.406Z,10.40
2023-01-04T08:44:44.206Z,12.30
2023-01-04T08:45:45.056Z,10.63
2023-01-04T08:46:46.360Z,10.37
2023-01-04T08:47:47.605Z,9.30
2023-01-04T08:48:48.947Z,9.57
2023-01-04T08:49:49.802Z,14.00
2023-01-04T08:50:51.026Z,11.35
2023-01-04T08:51:51.867Z,10.20
2023-01-04T08:52:53.018Z,11.93
2023-01-04T08:53:53.879Z,12.02
2023-01-04T08:54:55.006Z,13.48
2023-01-04T08:55:57.963Z,11.02
2023-01-04T08:56:59.147Z,9.40
2023-01-04T08:58:00.292Z,15.05
2023-01-04T08:59:01.423Z,12.65
2023-01-04T09:00:03.700Z,10.30
2023-01-04T09:01:06.039Z,8.40
2023-01-04T09:02:12.488Z,8.70
2023-01-04T09:03:13.972Z,7.43
2023-01-04T09:04:14.938Z,10.75
2023-01-04T09:05:22.306Z,8.20
2023-01-04T09:06:24.198Z,11.43
2023-01-04T09:07:25.466Z,13.27
2023-01-04T09:08:26.617Z,12.75
2023-01-04T09:09:29.271Z,7.97
2023-01-04T09:10:30.462Z,14.25
2023-01-04T09:11:31.351Z,11.45
2023-01-04T09:12:32.612Z,11.50
2023-01-04T09:13:34.392Z,7.88
2023-01-04T09:14:35.699Z,8.50
2023-01-04T09:15:37.364Z,7.95
2023-01-04T09:16:38.805Z,8.30
2023-01-04T09:17:58.029Z,9.32
2023-01-04T09:19:01.269Z,9.32
2023-01-04T09:20:02.519Z,11.90
2023-01-04T09:21:05.290Z,9.18
2023-01-04T09:22:06.494Z,8.05
2023-01-04T09:23:07.492Z,8.45
2023-01-04T09:24:08.650Z,11.63
2023-01-04T09:25:09.527Z,8.27
2023-01-04T09:26:11.764Z,8.05
2023-01-04T09:27:13.021Z,8.13
2023-01-04T09:28:13.870Z,10.75
2023-01-04T09:29:15.090Z,7.40
2023-01-04T09:30:15.943Z,9.73
2023-01-04T09:31:18.737Z,9.77
2023-01-04T09:32:19.967Z,8.45
2023-01-04T09:33:20.812Z,9.30
2023-01-04T09:34:22.139Z,8.50
2023-01-04T09:35:22.989Z,8.38
2023-01-04T09:36:24.784Z,9.88
2023-01-04T09:37:25.713Z,12.68
2023-01-04T09:38:26.819Z,11.07
2023-01-04T09:39:29.691Z,10.27
2023-01-04T09:40:31.827Z,9.35
2023-01-04T09:41:34.914Z,9.57
2023-01-04T09:42:39.507Z,8.35
2023-01-04T09:43:44.750Z,7.18
2023-01-04T09:45:22.042Z,10.50
2023-01-04T09:46:10.582Z,9.80
2023-01-04T09:47:14.719Z,8.18
2023-01-04T09:48:25.005Z,9.32
2023-01-04T09:49:30.357Z,10.20
2023-01-04T09:50:33.471Z,8.63
2023-01-04T09:51:36.206Z,12.70
2023-01-04T09:52:44.205Z,8.07
2023-01-04T09:53:46.097Z,7.00
2023-01-04T09:54:48.775Z,11.43
2023-01-04T09:55:51.775Z,10.55
2023-01-04T09:56:55.264Z,7.60
2023-01-04T09:57:58.028Z,8.80
2023-01-04T09:59:00.107Z,8.10
2023-01-04T10:00:05.042Z,8.93
2023-01-04T10:01:07.574Z,8.82
2023-01-04T10:02:11.500Z,7.35
2023-01-04T10:03:14.427Z,7.40
2023-01-04T10:04:19.067Z,6.80
2023-01-04T10:05:21.135Z,7.68
2023-01-04T10:07:26.198Z,7.25
2023-01-04T10:08:27.401Z,8.73
2023-01-04T10:09:28.586Z,7.95
2023-01-04T10:10:38.140Z,8.32
2023-01-04T10:11:45.113Z,9.38
2023-01-04T10:12:50.683Z,7.70
2023-01-04T10:14:00.873Z,7.85
2023-01-04T10:15:06.289Z,7.97
2023-01-04T10:16:12.882Z,5.82
2023-01-04T10:17:35.618Z,7.93
2023-01-04T10:21:51.126Z,7.95
2023-01-04T10:22:56.884Z,9.52
2023-01-04T10:24:03.022Z,9.10
2023-01-04T10:25:12.251Z,6.32
2023-01-04T10:26:14.787Z,7.45
2023-01-04T10:27:19.031Z,5.85
2023-01-04T10:28:28.109Z,8.82
2023-01-04T10:29:37.290Z,6.50
2023-01-04T10:30:43.477Z,6.30
2023-01-04T10:31:46.647Z,7.22
2023-01-04T10:32:53.042Z,6.75
2023-01-04T10:33:57.297Z,6.60
2023-01-04T10:34:58.518Z,5.38
2023-01-04T10:35:59.764Z,8.60
2023-01-04T10:37:09.805Z,6.25
2023-01-04T10:38:14.377Z,6.78
2023-01-04T10:39:18.814Z,6.55
2023-01-04T10:40:20.103Z,6.80
2023-01-04T10:41:23.790Z,5.78
2023-01-04T10:42:31.941Z,6.65
2023-01-04T10:44:11.916Z,5.70
2023-01-04T10:45:08.682Z,6.05
2023-01-04T10:46:13.527Z,7.07
2023-01-04T10:47:17.230Z,6.07
2023-01-04T10:48:21.926Z,6.43
2023-01-04T10:49:27.507Z,6.00
2023-01-04T10:50:32.928Z,7.40
2023-01-04T10:51:36.541Z,8.52
2023-01-04T10:52:41.468Z,6.70
2023-01-04T10:53:45.977Z,11.50
2023-01-04T10:54:48.831Z,10.45
2023-01-04T10:56:24.877Z,11.88
2023-01-04T10:57:16.926Z,10.70
2023-01-04T10:58:21.745Z,9.27
2023-01-04T10:59:25.371Z,8.93
2023-01-04T11:00:28.271Z,9.63
2023-01-04T11:01:31.819Z,10.52
2023-01-04T11:02:35.769Z,11.65
2023-01-04T11:03:41.108Z,11.13
2023-01-04T11:04:48.056Z,10.18
2023-01-04T11:05:50.620Z,11.30
2023-01-04T11:06:53.859Z,10.27
2023-01-04T11:07:56.330Z,10.27
2023-01-04T11:08:59.156Z,11.85
2023-01-04T11:10:02.505Z,11.05
2023-01-04T11:11:05.410Z,8.52
2023-01-04T11:12:09.047Z,11.63
2023-01-04T11:13:10.480Z,10.75
2023-01-04T11:14:11.733Z,10.95
2023-01-04T11:15:12.989Z,11.93
2023-01-04T11:16:13.904Z,12.38
2023-01-04T11:17:15.145Z,10.07
2023-01-04T11:18:16.552Z,10.82
2023-01-04T11:19:17.729Z,8.73
2023-01-04T11:20:22.725Z,9.65
2023-01-04T11:21:29.126Z,9.18
2023-01-04T11:22:34.058Z,9.02
2023-01-04T11:23:34.904Z,10.20
2023-01-04T11:24:36.703Z,11.70
2023-01-04T11:25:39.694Z,8.07
2023-01-04T11:26:42.984Z,10.65
2023-01-04T11:27:46.277Z,8.50
2023-01-04T11:28:50.581Z,9.60
2023-01-04T11:29:54.015Z,11.07
2023-01-04T11:30:57.554Z,7.53
2023-01-04T11:32:00.997Z,9.20
2023-01-04T11:33:03.146Z,8.15
2023-01-04T11:34:04.273Z,7.10
2023-01-04T11:35:05.544Z,10.00
2023-01-04T11:36:07.691Z,10.98
2023-01-04T11:37:22.160Z,9.65
2023-01-04T11:38:24.061Z,8.27
2023-01-04T11:39:25.676Z,7.43
2023-01-04T11:40:27.856Z,7.93
2023-01-04T11:41:28.985Z,6.93
2023-01-04T11:42:30.974Z,8.55
2023-01-04T11:44:33.882Z,8.02
2023-01-04T11:45:35.078Z,8.38
2023-01-04T11:46:36.210Z,9.85
2023-01-04T11:47:46.324Z,11.38
2023-01-04T11:48:47.887Z,6.82
2023-01-04T11:49:48.748Z,7.72
2023-01-04T11:50:55.140Z,8.97
2023-01-04T11:51:56.951Z,7.32
2023-01-04T11:52:57.836Z,8.65
2023-01-04T11:54:00.759Z,7.80
2023-01-04T11:55:22.209Z,8.20
2023-01-04T11:56:24.328Z,7.20
2023-01-04T11:57:25.191Z,6.65
2023-01-04T11:58:27.323Z,6.73
2023-01-04T11:59:28.552Z,6.82
2023-01-04T12:36:42.400Z,6.93
2023-01-04T12:37:47.572Z,6.80
2023-01-04T12:39:02.889Z,7.32
2023-01-04T12:40:24.204Z,6.63
2023-01-04T12:42:01.056Z,8.68
2023-01-04T12:43:17.758Z,5.70
2023-01-04T12:44:37.957Z,6.93
2023-01-04T12:45:39.307Z,6.35
2023-01-04T12:46:59.778Z,8.13
2023-01-04T12:48:39.295Z,6.15
2023-01-04T12:49:43.609Z,4.85
2023-01-04T12:51:31.095Z,5.82
2023-01-04T12:52:55.226Z,10.63
2023-01-04T12:54:03.562Z,10.40
2023-01-04T12:55:21.480Z,9.38
2023-01-04T12:56:22.937Z,9.80
2023-01-04T12:57:24.641Z,9.63
2023-01-04T12:59:23.684Z,8.20
2023-01-04T13:00:06.211Z,13.23
2023-01-04T13:02:14.028Z,10.15
2023-01-04T13:03:30.134Z,12.10
2023-01-04T13:04:38.918Z,10.48
2023-01-04T13:05:57.254Z,10.55
2023-01-04T13:07:05.782Z,8.93
2023-01-04T13:08:09.372Z,11.27
2023-01-04T13:09:18.824Z,10.13
2023-01-04T13:10:28.569Z,9.77
2023-01-04T13:11:37.723Z,7.78
2023-01-04T13:12:44.287Z,8.77
2023-01-04T13:13:48.744Z,10.05
2023-01-04T13:14:51.382Z,7.15
2023-01-04T13:15:59.735Z,6.80
2023-01-04T13:17:11.019Z,7.68
2023-01-04T13:18:25.767Z,6.22
2023-01-04T13:19:28.439Z,5.88
2023-01-04T13:20:30.261Z,4.53
2023-01-04T13:21:32.463Z,4.53
2023-01-04T13:22:35.304Z,4.90
2023-01-04T13:23:36.694Z,4.07
2023-01-04T13:24:42.914Z,5.45
2023-01-04T13:25:44.075Z,5.60
2023-01-04T13:26:47.479Z,5.15
2023-01-04T13:27:55.537Z,6.03
2023-01-04T13:29:06.799Z,6.18
2023-01-04T13:30:22.841Z,5.15
2023-01-04T13:31:23.792Z,5.53
2023-01-04T13:32:26.238Z,5.00
2023-01-04T13:33:28.307Z,5.53
2023-01-04T13:34:31.356Z,4.72
2023-01-04T13:35:32.331Z,5.72
2023-01-04T13:36:33.592Z,6.13
2023-01-04T13:37:35.617Z,5.43
2023-01-04T13:39:38.816Z,6.88
2023-01-04T13:40:48.788Z,5.65
2023-01-04T13:41:52.161Z,8.27
2023-01-04T13:43:01.986Z,11.30
2023-01-04T13:44:06.585Z,9.30
2023-01-04T13:45:28.400Z,7.88
2023-01-04T13:46:29.554Z,9.50
2023-01-04T13:47:33.847Z,8.13
2023-01-04T13:48:36.839Z,6.85
2023-01-04T13:49:38.599Z,8.63
2023-01-04T13:50:43.328Z,8.07
2023-01-04T13:51:44.470Z,6.07
2023-01-04T13:52:58.319Z,6.15
2023-01-04T13:54:04.317Z,7.40
2023-01-04T13:55:17.563Z,5.90
2023-01-04T13:56:19.931Z,6.03
2023-01-04T13:57:21.223Z,5.20
2023-01-04T13:58:23.183Z,6.15
2023-01-04T14:00:26.332Z,8.75
2023-01-04T14:01:29.714Z,11.90
2023-01-04T14:02:32.008Z,10.35
2023-01-04T14:03:37.323Z,7.38
2023-01-04T14:04:42.233Z,6.95
2023-01-04T14:05:44.674Z,9.32
2023-01-04T14:06:46.882Z,10.70
2023-01-04T14:07:47.766Z,13.65
2023-01-04T14:08:53.853Z,10.97
2023-01-04T14:09:57.178Z,8.38
2023-01-04T14:10:58.870Z,6.47
2023-01-04T14:13:22.252Z,6.18
2023-01-04T14:14:29.573Z,6.10
2023-01-04T14:15:33.222Z,6.03
2023-01-04T14:16:34.189Z,4.88
2023-01-04T14:17:41.684Z,5.20
2023-01-04T14:18:45.714Z,5.57
2023-01-04T14:19:48.324Z,5.20
2023-01-04T14:20:49.511Z,6.65
2023-01-04T14:21:52.089Z,5.55
2023-01-04T14:22:53.856Z,8.27
2023-01-04T14:23:54.720Z,8.73
2023-01-04T14:25:12.233Z,8.50
2023-01-04T14:26:29.912Z,10.82
2023-01-04T14:27:31.913Z,8.60
2023-01-04T14:29:33.959Z,8.43
2023-01-04T14:30:34.886Z,8.65
2023-01-04T14:31:36.954Z,9.43
2023-01-04T14:32:37.936Z,8.73
2023-01-04T14:33:40.989Z,9.30
2023-01-04T14:34:42.145Z,7.10
2023-01-04T14:35:47.699Z,10.55
2023-01-04T14:37:01.995Z,10.13
2023-01-04T14:38:04.116Z,7.80
2023-01-04T14:39:26.159Z,8.63
2023-01-04T14:40:28.749Z,15.20
2023-01-04T14:41:32.000Z,10.23
2023-01-04T14:42:33.116Z,11.30
2023-01-04T14:43:35.348Z,14.70
2023-01-04T14:44:40.431Z,13.10
2023-01-04T14:45:41.299Z,15.00
2023-01-04T14:46:45.477Z,14.10
2023-01-04T14:47:46.637Z,15.68
2023-01-04T14:48:47.579Z,14.65
2023-01-04T14:49:48.710Z,14.07
2023-01-04T14:50:50.369Z,15.32
2023-01-04T14:51:52.463Z,17.27
2023-01-04T14:52:53.999Z,18.35
2023-01-04T14:53:54.905Z,24.40
2023-01-04T14:54:56.767Z,21.52
2023-01-04T14:55:57.662Z,19.85
2023-01-04T14:56:59.563Z,20.57
2023-01-04T14:58:00.413Z,21.20
2023-01-04T14:59:01.622Z,37.20
2023-01-04T15:00:03.193Z,48.47
2023-01-04T15:01:04.338Z,65.72